sensor_id;sensor_type;location;lat;lon;timestamp;temperature;humidity
66337;SHT30;53139;45.576;5.304;2022-11-15T00:00:43;10.67;99.08
66337;SHT30;53139;45.576;5.304;2022-11-15T00:03:45;10.68;98.87
66337;SHT30;53139;45.576;5.304;2022-11-15T00:06:46;10.62;99.13
66337;SHT30;53139;45.576;5.304;2022-11-15T00:09:46;10.64;99.03
66337;SHT30;53139;45.576;5.304;2022-11-15T00:12:46;10.61;99.31
66337;SHT30;53139;45.576;5.304;2022-11-15T00:15:47;10.62;99.17
66337;SHT30;53139;45.576;5.304;2022-11-15T00:18:47;10.71;98.86
66337;SHT30;53139;45.576;5.304;2022-11-15T00:21:47;10.55;99.65
66337;SHT30;53139;45.576;5.304;2022-11-15T00:24:48;10.71;99.15
66337;SHT30;53139;45.576;5.304;2022-11-15T00:27:48;10.65;99.27
66337;SHT30;53139;45.576;5.304;2022-11-15T00:30:49;10.67;99.40
66337;SHT30;53139;45.576;5.304;2022-11-15T00:33:49;10.72;99.18
66337;SHT30;53139;45.576;5.304;2022-11-15T00:36:49;10.67;99.42
66337;SHT30;53139;45.576;5.304;2022-11-15T00:39:50;10.68;99.40
66337;SHT30;53139;45.576;5.304;2022-11-15T00:42:50;10.64;99.35
66337;SHT30;53139;45.576;5.304;2022-11-15T00:45:50;10.57;99.78
66337;SHT30;53139;45.576;5.304;2022-11-15T00:48:51;10.62;99.52
66337;SHT30;53139;45.576;5.304;2022-11-15T00:51:51;10.68;99.31
66337;SHT30;53139;45.576;5.304;2022-11-15T00:54:51;10.71;99.02
66337;SHT30;53139;45.576;5.304;2022-11-15T00:57:52;10.69;99.17
66337;SHT30;53139;45.576;5.304;2022-11-15T01:00:52;10.64;99.30
66337;SHT30;53139;45.576;5.304;2022-11-15T01:03:52;10.65;99.38
66337;SHT30;53139;45.576;5.304;2022-11-15T01:06:53;10.57;99.77
66337;SHT30;53139;45.576;5.304;2022-11-15T01:09:53;10.55;99.51
66337;SHT30;53139;45.576;5.304;2022-11-15T01:12:54;10.55;99.62
66337;SHT30;53139;45.576;5.304;2022-11-15T01:15:54;10.58;99.66
66337;SHT30;53139;45.576;5.304;2022-11-15T01:18:54;10.62;99.54
66337;SHT30;53139;45.576;5.304;2022-11-15T01:21:55;10.62;99.61
66337;SHT30;53139;45.576;5.304;2022-11-15T01:24:55;10.68;99.29
66337;SHT30;53139;45.576;5.304;2022-11-15T01:27:55;10.62;99.57
66337;SHT30;53139;45.576;5.304;2022-11-15T01:30:58;10.64;99.46
66337;SHT30;53139;45.576;5.304;2022-11-15T01:33:59;10.61;99.52
66337;SHT30;53139;45.576;5.304;2022-11-15T01:37:00;10.60;99.59
66337;SHT30;53139;45.576;5.304;2022-11-15T01:40:00;10.54;99.72
66337;SHT30;53139;45.576;5.304;2022-11-15T01:43:29;10.52;99.99
66337;SHT30;53139;45.576;5.304;2022-11-15T01:46:34;10.50;99.94
66337;SHT30;53139;45.576;5.304;2022-11-15T01:49:38;10.54;99.61
66337;SHT30;53139;45.576;5.304;2022-11-15T01:52:40;10.50;99.72
66337;SHT30;53139;45.576;5.304;2022-11-15T01:55:41;10.52;99.91
66337;SHT30;53139;45.576;5.304;2022-11-15T01:58:44;10.55;99.91
66337;SHT30;53139;45.576;5.304;2022-11-15T02:01:45;10.54;99.75
66337;SHT30;53139;45.576;5.304;2022-11-15T02:04:47;10.52;99.76
66337;SHT30;53139;45.576;5.304;2022-11-15T02:07:48;10.50;99.99
66337;SHT30;53139;45.576;5.304;2022-11-15T02:10:48;10.51;99.55
66337;SHT30;53139;45.576;5.304;2022-11-15T02:13:49;10.55;99.56
66337;SHT30;53139;45.576;5.304;2022-11-15T02:30:04;10.55;99.61
66337;SHT30;53139;45.576;5.304;2022-11-15T02:43:24;10.79;98.72
66337;SHT30;53139;45.576;5.304;2022-11-15T02:47:03;10.76;98.92
66337;SHT30;53139;45.576;5.304;2022-11-15T02:50:17;10.71;98.89
66337;SHT30;53139;45.576;5.304;2022-11-15T02:53:23;10.72;98.85
66337;SHT30;53139;45.576;5.304;2022-11-15T02:56:24;10.82;98.26
66337;SHT30;53139;45.576;5.304;2022-11-15T03:07:00;10.82;98.57
66337;SHT30;53139;45.576;5.304;2022-11-15T03:10:06;10.81;98.63
66337;SHT30;53139;45.576;5.304;2022-11-15T03:19:30;10.76;99.37
66337;SHT30;53139;45.576;5.304;2022-11-15T03:22:37;10.75;99.68
66337;SHT30;53139;45.576;5.304;2022-11-15T03:25:46;10.75;99.83
66337;SHT30;53139;45.576;5.304;2022-11-15T03:28:51;10.73;99.24
66337;SHT30;53139;45.576;5.304;2022-11-15T03:32:03;10.73;99.70
66337;SHT30;53139;45.576;5.304;2022-11-15T03:35:14;10.75;99.66
66337;SHT30;53139;45.576;5.304;2022-11-15T03:38:21;10.72;99.66
66337;SHT30;53139;45.576;5.304;2022-11-15T03:41:26;10.72;99.78
66337;SHT30;53139;45.576;5.304;2022-11-15T03:48:39;10.69;99.71
66337;SHT30;53139;45.576;5.304;2022-11-15T03:51:20;10.73;99.86
66337;SHT30;53139;45.576;5.304;2022-11-15T03:54:21;10.71;99.73
66337;SHT30;53139;45.576;5.304;2022-11-15T03:57:21;10.68;99.80
66337;SHT30;53139;45.576;5.304;2022-11-15T04:00:22;10.68;99.81
66337;SHT30;53139;45.576;5.304;2022-11-15T04:03:22;10.62;99.71
66337;SHT30;53139;45.576;5.304;2022-11-15T04:06:23;10.54;99.99
66337;SHT30;53139;45.576;5.304;2022-11-15T04:09:23;10.61;99.99
66337;SHT30;53139;45.576;5.304;2022-11-15T04:12:23;10.57;99.91
66337;SHT30;53139;45.576;5.304;2022-11-15T04:15:30;10.60;99.99
66337;SHT30;53139;45.576;5.304;2022-11-15T04:18:31;10.60;99.99
66337;SHT30;53139;45.576;5.304;2022-11-15T04:21:31;10.51;99.99
66337;SHT30;53139;45.576;5.304;2022-11-15T04:24:50;10.54;99.99
66337;SHT30;53139;45.576;5.304;2022-11-15T04:27:50;10.58;99.99
66337;SHT30;53139;45.576;5.304;2022-11-15T04:30:51;10.61;99.94
66337;SHT30;53139;45.576;5.304;2022-11-15T04:33:52;10.65;99.99
66337;SHT30;53139;45.576;5.304;2022-11-15T04:36:52;10.62;99.99
66337;SHT30;53139;45.576;5.304;2022-11-15T04:40:11;10.67;99.88
66337;SHT30;53139;45.576;5.304;2022-11-15T04:43:11;10.52;99.93
66337;SHT30;53139;45.576;5.304;2022-11-15T04:46:12;10.54;99.99
66337;SHT30;53139;45.576;5.304;2022-11-15T04:49:12;10.67;99.76
66337;SHT30;53139;45.576;5.304;2022-11-15T04:52:12;10.67;99.79
66337;SHT30;53139;45.576;5.304;2022-11-15T04:55:13;10.69;99.98
66337;SHT30;53139;45.576;5.304;2022-11-15T04:58:13;10.58;99.92
66337;SHT30;53139;45.576;5.304;2022-11-15T05:01:14;10.55;99.99
66337;SHT30;53139;45.576;5.304;2022-11-15T05:04:14;10.50;99.99
66337;SHT30;53139;45.576;5.304;2022-11-15T05:07:21;10.48;99.99
66337;SHT30;53139;45.576;5.304;2022-11-15T05:10:21;10.47;99.99
66337;SHT30;53139;45.576;5.304;2022-11-15T05:13:22;10.54;99.99
66337;SHT30;53139;45.576;5.304;2022-11-15T05:16:22;10.54;99.99
66337;SHT30;53139;45.576;5.304;2022-11-15T05:19:23;10.51;99.99
66337;SHT30;53139;45.576;5.304;2022-11-15T05:22:23;10.57;99.99
66337;SHT30;53139;45.576;5.304;2022-11-15T05:25:23;10.60;99.99
66337;SHT30;53139;45.576;5.304;2022-11-15T05:28:24;10.45;99.99
66337;SHT30;53139;45.576;5.304;2022-11-15T05:31:25;10.54;99.99
66337;SHT30;53139;45.576;5.304;2022-11-15T05:34:26;10.58;99.99
66337;SHT30;53139;45.576;5.304;2022-11-15T05:37:28;10.50;99.99
66337;SHT30;53139;45.576;5.304;2022-11-15T05:40:29;10.50;99.99
66337;SHT30;53139;45.576;5.304;2022-11-15T05:43:32;10.54;99.99
66337;SHT30;53139;45.576;5.304;2022-11-15T05:46:34;10.55;99.99
66337;SHT30;53139;45.576;5.304;2022-11-15T05:49:36;10.54;99.99
66337;SHT30;53139;45.576;5.304;2022-11-15T05:52:38;10.55;99.99
66337;SHT30;53139;45.576;5.304;2022-11-15T05:55:39;10.57;99.99
66337;SHT30;53139;45.576;5.304;2022-11-15T05:58:41;10.50;99.99
66337;SHT30;53139;45.576;5.304;2022-11-15T06:01:42;10.51;99.99
66337;SHT30;53139;45.576;5.304;2022-11-15T06:04:42;10.54;99.99
66337;SHT30;53139;45.576;5.304;2022-11-15T06:07:43;10.55;99.99
66337;SHT30;53139;45.576;5.304;2022-11-15T06:10:44;10.55;99.99
66337;SHT30;53139;45.576;5.304;2022-11-15T06:13:44;10.57;99.99
66337;SHT30;53139;45.576;5.304;2022-11-15T06:16:44;10.52;99.99
66337;SHT30;53139;45.576;5.304;2022-11-15T06:19:45;10.52;99.99
66337;SHT30;53139;45.576;5.304;2022-11-15T06:22:45;10.41;99.99
66337;SHT30;53139;45.576;5.304;2022-11-15T06:25:45;10.45;99.99
66337;SHT30;53139;45.576;5.304;2022-11-15T06:28:46;10.47;99.99
66337;SHT30;53139;45.576;5.304;2022-11-15T06:31:46;10.48;99.99
66337;SHT30;53139;45.576;5.304;2022-11-15T06:34:46;10.45;99.99
66337;SHT30;53139;45.576;5.304;2022-11-15T06:37:47;10.47;99.99
66337;SHT30;53139;45.576;5.304;2022-11-15T06:40:47;10.50;99.99
66337;SHT30;53139;45.576;5.304;2022-11-15T06:43:47;10.52;99.99
66337;SHT30;53139;45.576;5.304;2022-11-15T06:46:48;10.54;99.99
66337;SHT30;53139;45.576;5.304;2022-11-15T06:49:48;10.57;99.99
66337;SHT30;53139;45.576;5.304;2022-11-15T06:52:48;10.60;99.99
66337;SHT30;53139;45.576;5.304;2022-11-15T06:55:49;10.57;99.99
66337;SHT30;53139;45.576;5.304;2022-11-15T06:58:50;10.58;99.99
66337;SHT30;53139;45.576;5.304;2022-11-15T07:01:50;10.61;99.99
66337;SHT30;53139;45.576;5.304;2022-11-15T07:04:50;10.62;99.99
66337;SHT30;53139;45.576;5.304;2022-11-15T07:07:55;10.69;99.98
66337;SHT30;53139;45.576;5.304;2022-11-15T07:11:07;10.69;99.99
66337;SHT30;53139;45.576;5.304;2022-11-15T07:14:08;10.71;99.99
66337;SHT30;53139;45.576;5.304;2022-11-15T07:17:08;10.73;99.92
66337;SHT30;53139;45.576;5.304;2022-11-15T07:20:09;10.71;99.99
66337;SHT30;53139;45.576;5.304;2022-11-15T07:23:32;10.79;99.85
66337;SHT30;53139;45.576;5.304;2022-11-15T07:26:55;10.82;99.95
66337;SHT30;53139;45.576;5.304;2022-11-15T07:30:01;10.79;99.99
66337;SHT30;53139;45.576;5.304;2022-11-15T07:33:17;10.86;99.94
66337;SHT30;53139;45.576;5.304;2022-11-15T07:36:34;10.86;99.88
66337;SHT30;53139;45.576;5.304;2022-11-15T07:39:34;10.92;99.59
66337;SHT30;53139;45.576;5.304;2022-11-15T07:42:35;10.92;99.24
66337;SHT30;53139;45.576;5.304;2022-11-15T07:45:53;10.96;99.68
66337;SHT30;53139;45.576;5.304;2022-11-15T07:48:54;11.03;99.75
66337;SHT30;53139;45.576;5.304;2022-11-15T07:51:54;11.02;99.55
66337;SHT30;53139;45.576;5.304;2022-11-15T07:54:55;11.09;99.00
66337;SHT30;53139;45.576;5.304;2022-11-15T07:58:06;11.15;99.26
66337;SHT30;53139;45.576;5.304;2022-11-15T08:01:09;11.12;99.11
66337;SHT30;53139;45.576;5.304;2022-11-15T08:04:10;11.19;99.11
66337;SHT30;53139;45.576;5.304;2022-11-15T08:07:11;11.26;99.05
66337;SHT30;53139;45.576;5.304;2022-11-15T08:10:11;11.30;98.69
66337;SHT30;53139;45.576;5.304;2022-11-15T08:13:12;11.33;98.47
66337;SHT30;53139;45.576;5.304;2022-11-15T08:16:13;11.38;98.83
66337;SHT30;53139;45.576;5.304;2022-11-15T08:19:13;11.41;98.61
66337;SHT30;53139;45.576;5.304;2022-11-15T08:22:14;11.41;98.67
66337;SHT30;53139;45.576;5.304;2022-11-15T08:25:15;11.40;98.03
66337;SHT30;53139;45.576;5.304;2022-11-15T08:28:16;11.50;98.63
66337;SHT30;53139;45.576;5.304;2022-11-15T08:31:18;11.55;97.90
66337;SHT30;53139;45.576;5.304;2022-11-15T08:34:18;11.72;98.44
66337;SHT30;53139;45.576;5.304;2022-11-15T08:37:18;11.60;97.72
66337;SHT30;53139;45.576;5.304;2022-11-15T08:40:19;11.74;98.38
66337;SHT30;53139;45.576;5.304;2022-11-15T08:43:20;11.79;98.38
66337;SHT30;53139;45.576;5.304;2022-11-15T08:46:20;11.88;97.79
66337;SHT30;53139;45.576;5.304;2022-11-15T08:49:20;11.86;97.15
66337;SHT30;53139;45.576;5.304;2022-11-15T08:52:21;11.81;96.76
66337;SHT30;53139;45.576;5.304;2022-11-15T08:55:21;11.79;96.38
66337;SHT30;53139;45.576;5.304;2022-11-15T08:58:22;11.86;97.34
66337;SHT30;53139;45.576;5.304;2022-11-15T09:01:22;11.81;96.42
66337;SHT30;53139;45.576;5.304;2022-11-15T09:04:23;11.86;96.13
66337;SHT30;53139;45.576;5.304;2022-11-15T09:07:23;11.88;95.89
66337;SHT30;53139;45.576;5.304;2022-11-15T09:10:24;11.95;96.39
66337;SHT30;53139;45.576;5.304;2022-11-15T09:13:25;12.13;97.26
66337;SHT30;53139;45.576;5.304;2022-11-15T09:16:25;12.20;97.02
66337;SHT30;53139;45.576;5.304;2022-11-15T09:19:25;12.09;95.24
66337;SHT30;53139;45.576;5.304;2022-11-15T09:22:26;12.22;96.54
66337;SHT30;53139;45.576;5.304;2022-11-15T09:25:27;12.30;95.84
66337;SHT30;53139;45.576;5.304;2022-11-15T09:28:28;12.47;96.77
66337;SHT30;53139;45.576;5.304;2022-11-15T09:31:29;12.53;96.12
66337;SHT30;53139;45.576;5.304;2022-11-15T09:34:29;12.54;95.84
66337;SHT30;53139;45.576;5.304;2022-11-15T09:37:31;12.45;96.08
66337;SHT30;53139;45.576;5.304;2022-11-15T09:40:36;12.51;95.10
66337;SHT30;53139;45.576;5.304;2022-11-15T09:44:12;12.54;94.97
66337;SHT30;53139;45.576;5.304;2022-11-15T09:50:46;12.62;95.70
66337;SHT30;53139;45.576;5.304;2022-11-15T09:57:04;12.72;95.80
66337;SHT30;53139;45.576;5.304;2022-11-15T10:00:21;12.64;95.35
66337;SHT30;53139;45.576;5.304;2022-11-15T10:03:33;12.74;95.22
66337;SHT30;53139;45.576;5.304;2022-11-15T10:06:37;12.87;95.39
66337;SHT30;53139;45.576;5.304;2022-11-15T10:12:51;12.87;93.83
66337;SHT30;53139;45.576;5.304;2022-11-15T10:15:56;12.95;94.52
66337;SHT30;53139;45.576;5.304;2022-11-15T10:19:20;13.12;94.12
66337;SHT30;53139;45.576;5.304;2022-11-15T10:25:39;13.23;95.28
66337;SHT30;53139;45.576;5.304;2022-11-15T10:28:39;13.19;93.83
66337;SHT30;53139;45.576;5.304;2022-11-15T10:31:40;13.34;93.47
66337;SHT30;53139;45.576;5.304;2022-11-15T10:34:59;13.39;93.17
66337;SHT30;53139;45.576;5.304;2022-11-15T10:38:59;13.55;94.37
66337;SHT30;53139;45.576;5.304;2022-11-15T10:42:17;13.60;93.61
66337;SHT30;53139;45.576;5.304;2022-11-15T10:45:31;13.60;94.11
66337;SHT30;53139;45.576;5.304;2022-11-15T10:48:31;13.67;92.96
66337;SHT30;53139;45.576;5.304;2022-11-15T10:51:34;13.77;92.60
66337;SHT30;53139;45.576;5.304;2022-11-15T10:54:43;13.72;92.75
66337;SHT30;53139;45.576;5.304;2022-11-15T10:57:54;13.89;93.17
66337;SHT30;53139;45.576;5.304;2022-11-15T11:00:55;13.92;95.69
66337;SHT30;53139;45.576;5.304;2022-11-15T11:04:08;13.97;93.89
66337;SHT30;53139;45.576;5.304;2022-11-15T11:07:21;13.89;93.55
66337;SHT30;53139;45.576;5.304;2022-11-15T11:10:22;13.85;90.99
66337;SHT30;53139;45.576;5.304;2022-11-15T11:13:34;13.99;93.82
66337;SHT30;53139;45.576;5.304;2022-11-15T11:16:42;13.89;91.91
66337;SHT30;53139;45.576;5.304;2022-11-15T11:20:02;13.97;92.12
66337;SHT30;53139;45.576;5.304;2022-11-15T11:23:12;13.98;91.93
66337;SHT30;53139;45.576;5.304;2022-11-15T11:26:37;13.98;93.62
66337;SHT30;53139;45.576;5.304;2022-11-15T11:30:09;13.88;92.05
66337;SHT30;53139;45.576;5.304;2022-11-15T11:33:35;14.05;92.74
66337;SHT30;53139;45.576;5.304;2022-11-15T11:36:47;14.15;93.09
66337;SHT30;53139;45.576;5.304;2022-11-15T11:47:21;14.38;91.21
66337;SHT30;53139;45.576;5.304;2022-11-15T11:50:26;14.34;91.28
66337;SHT30;53139;45.576;5.304;2022-11-15T11:53:37;14.44;90.98
66337;SHT30;53139;45.576;5.304;2022-11-15T11:56:41;14.40;89.54
66337;SHT30;53139;45.576;5.304;2022-11-15T11:59:49;14.34;87.71
66337;SHT30;53139;45.576;5.304;2022-11-15T12:13:09;14.65;90.42
66337;SHT30;53139;45.576;5.304;2022-11-15T12:19:14;14.60;89.11
66337;SHT30;53139;45.576;5.304;2022-11-15T12:31:54;14.23;89.55
66337;SHT30;53139;45.576;5.304;2022-11-15T12:34:57;14.22;89.25
66337;SHT30;53139;45.576;5.304;2022-11-15T12:37:58;14.13;89.03
66337;SHT30;53139;45.576;5.304;2022-11-15T12:41:13;14.13;89.37
66337;SHT30;53139;45.576;5.304;2022-11-15T12:47:37;14.15;88.88
66337;SHT30;53139;45.576;5.304;2022-11-15T12:53:50;14.19;88.21
66337;SHT30;53139;45.576;5.304;2022-11-15T13:03:18;14.13;88.38
66337;SHT30;53139;45.576;5.304;2022-11-15T13:13:43;14.16;88.92
66337;SHT30;53139;45.576;5.304;2022-11-15T13:16:44;14.20;89.74
66337;SHT30;53139;45.576;5.304;2022-11-15T13:19:53;14.30;87.46
66337;SHT30;53139;45.576;5.304;2022-11-15T13:23:12;14.22;90.66
66337;SHT30;53139;45.576;5.304;2022-11-15T13:26:14;14.17;90.55
66337;SHT30;53139;45.576;5.304;2022-11-15T13:29:19;14.22;89.56
66337;SHT30;53139;45.576;5.304;2022-11-15T13:32:20;14.22;90.69
66337;SHT30;53139;45.576;5.304;2022-11-15T13:35:26;14.15;92.00
66337;SHT30;53139;45.576;5.304;2022-11-15T13:38:32;14.20;92.37
66337;SHT30;53139;45.576;5.304;2022-11-15T13:41:35;14.25;92.48
66337;SHT30;53139;45.576;5.304;2022-11-15T13:44:35;14.29;91.13
66337;SHT30;53139;45.576;5.304;2022-11-15T13:47:36;14.36;90.89
66337;SHT30;53139;45.576;5.304;2022-11-15T13:50:38;14.43;90.65
66337;SHT30;53139;45.576;5.304;2022-11-15T13:53:43;14.44;90.44
66337;SHT30;53139;45.576;5.304;2022-11-15T13:56:53;14.47;89.65
66337;SHT30;53139;45.576;5.304;2022-11-15T13:59:59;14.61;87.68
66337;SHT30;53139;45.576;5.304;2022-11-15T14:03:18;14.61;87.24
66337;SHT30;53139;45.576;5.304;2022-11-15T14:06:22;14.59;87.80
66337;SHT30;53139;45.576;5.304;2022-11-15T14:13:28;14.60;88.08
66337;SHT30;53139;45.576;5.304;2022-11-15T14:16:41;14.53;88.03
66337;SHT30;53139;45.576;5.304;2022-11-15T14:19:41;14.50;88.25
66337;SHT30;53139;45.576;5.304;2022-11-15T14:22:51;14.44;88.94
66337;SHT30;53139;45.576;5.304;2022-11-15T14:25:54;14.41;89.35
66337;SHT30;53139;45.576;5.304;2022-11-15T14:28:55;14.59;87.29
66337;SHT30;53139;45.576;5.304;2022-11-15T14:32:12;14.51;87.92
66337;SHT30;53139;45.576;5.304;2022-11-15T14:35:20;14.59;86.78
66337;SHT30;53139;45.576;5.304;2022-11-15T14:38:20;14.57;88.33
66337;SHT30;53139;45.576;5.304;2022-11-15T14:41:24;14.54;88.97
66337;SHT30;53139;45.576;5.304;2022-11-15T14:44:24;14.48;88.61
66337;SHT30;53139;45.576;5.304;2022-11-15T14:47:25;14.44;90.72
66337;SHT30;53139;45.576;5.304;2022-11-15T14:50:25;14.43;92.05
66337;SHT30;53139;45.576;5.304;2022-11-15T14:53:27;14.25;92.56
66337;SHT30;53139;45.576;5.304;2022-11-15T14:56:28;14.20;92.35
66337;SHT30;53139;45.576;5.304;2022-11-15T14:59:28;14.19;92.99
66337;SHT30;53139;45.576;5.304;2022-11-15T15:02:52;14.12;92.72
66337;SHT30;53139;45.576;5.304;2022-11-15T15:05:53;14.08;94.30
66337;SHT30;53139;45.576;5.304;2022-11-15T15:08:54;14.13;92.81
66337;SHT30;53139;45.576;5.304;2022-11-15T15:11:55;14.04;94.45
66337;SHT30;53139;45.576;5.304;2022-11-15T15:14:55;14.02;94.31
66337;SHT30;53139;45.576;5.304;2022-11-15T15:17:56;14.01;94.86
66337;SHT30;53139;45.576;5.304;2022-11-15T15:20:58;13.94;95.11
66337;SHT30;53139;45.576;5.304;2022-11-15T15:24:03;13.92;94.45
66337;SHT30;53139;45.576;5.304;2022-11-15T15:27:04;13.89;95.94
66337;SHT30;53139;45.576;5.304;2022-11-15T15:30:04;13.70;95.13
66337;SHT30;53139;45.576;5.304;2022-11-15T15:33:05;13.79;95.02
66337;SHT30;53139;45.576;5.304;2022-11-15T15:36:15;13.79;95.41
66337;SHT30;53139;45.576;5.304;2022-11-15T15:39:20;13.82;95.33
66337;SHT30;53139;45.576;5.304;2022-11-15T15:42:23;13.71;96.41
66337;SHT30;53139;45.576;5.304;2022-11-15T15:45:25;13.75;96.57
66337;SHT30;53139;45.576;5.304;2022-11-15T15:48:27;13.70;95.67
66337;SHT30;53139;45.576;5.304;2022-11-15T15:51:28;13.67;95.58
66337;SHT30;53139;45.576;5.304;2022-11-15T15:54:28;13.61;95.73
66337;SHT30;53139;45.576;5.304;2022-11-15T15:57:29;13.60;95.05
66337;SHT30;53139;45.576;5.304;2022-11-15T16:00:30;13.57;96.02
66337;SHT30;53139;45.576;5.304;2022-11-15T16:03:32;13.50;95.51
66337;SHT30;53139;45.576;5.304;2022-11-15T16:06:41;13.39;96.20
66337;SHT30;53139;45.576;5.304;2022-11-15T16:09:47;13.74;93.92
66337;SHT30;53139;45.576;5.304;2022-11-15T16:13:03;13.68;93.39
66337;SHT30;53139;45.576;5.304;2022-11-15T16:16:12;13.55;94.61
66337;SHT30;53139;45.576;5.304;2022-11-15T16:19:15;13.47;96.68
66337;SHT30;53139;45.576;5.304;2022-11-15T16:22:19;13.37;96.86
66337;SHT30;53139;45.576;5.304;2022-11-15T16:25:20;13.34;95.95
66337;SHT30;53139;45.576;5.304;2022-11-15T16:31:23;13.34;96.15
66337;SHT30;53139;45.576;5.304;2022-11-15T16:34:23;13.36;95.87
66337;SHT30;53139;45.576;5.304;2022-11-15T16:37:24;13.27;95.84
66337;SHT30;53139;45.576;5.304;2022-11-15T16:40:30;13.26;95.75
66337;SHT30;53139;45.576;5.304;2022-11-15T16:43:31;13.26;95.27
66337;SHT30;53139;45.576;5.304;2022-11-15T16:46:31;13.30;95.15
66337;SHT30;53139;45.576;5.304;2022-11-15T16:49:31;13.17;95.94
66337;SHT30;53139;45.576;5.304;2022-11-15T16:52:32;13.24;95.21
66337;SHT30;53139;45.576;5.304;2022-11-15T16:55:32;13.15;96.18
66337;SHT30;53139;45.576;5.304;2022-11-15T16:58:32;13.08;96.09
66337;SHT30;53139;45.576;5.304;2022-11-15T17:01:35;13.09;96.03
66337;SHT30;53139;45.576;5.304;2022-11-15T17:04:35;13.06;96.30
66337;SHT30;53139;45.576;5.304;2022-11-15T17:07:35;12.99;96.47
66337;SHT30;53139;45.576;5.304;2022-11-15T17:10:39;12.93;96.92
66337;SHT30;53139;45.576;5.304;2022-11-15T17:13:43;12.96;96.97
66337;SHT30;53139;45.576;5.304;2022-11-15T17:16:44;12.95;97.50
66337;SHT30;53139;45.576;5.304;2022-11-15T17:19:44;12.95;97.62
66337;SHT30;53139;45.576;5.304;2022-11-15T17:22:45;12.89;97.76
66337;SHT30;53139;45.576;5.304;2022-11-15T17:25:46;12.95;97.18
66337;SHT30;53139;45.576;5.304;2022-11-15T17:28:46;12.91;97.39
66337;SHT30;53139;45.576;5.304;2022-11-15T17:31:47;12.93;96.86
66337;SHT30;53139;45.576;5.304;2022-11-15T17:34:47;12.95;96.95
66337;SHT30;53139;45.576;5.304;2022-11-15T17:37:48;12.92;97.77
66337;SHT30;53139;45.576;5.304;2022-11-15T17:40:48;12.85;98.17
66337;SHT30;53139;45.576;5.304;2022-11-15T17:43:49;12.84;98.16
66337;SHT30;53139;45.576;5.304;2022-11-15T17:46:49;12.72;98.13
66337;SHT30;53139;45.576;5.304;2022-11-15T17:49:49;12.74;98.24
66337;SHT30;53139;45.576;5.304;2022-11-15T17:52:50;12.65;98.96
66337;SHT30;53139;45.576;5.304;2022-11-15T17:55:51;12.51;98.72
66337;SHT30;53139;45.576;5.304;2022-11-15T17:58:54;12.58;98.69
66337;SHT30;53139;45.576;5.304;2022-11-15T18:01:54;12.60;98.34
66337;SHT30;53139;45.576;5.304;2022-11-15T18:04:55;12.44;99.20
66337;SHT30;53139;45.576;5.304;2022-11-15T18:07:55;12.53;99.03
66337;SHT30;53139;45.576;5.304;2022-11-15T18:14:11;12.57;98.01
66337;SHT30;53139;45.576;5.304;2022-11-15T18:17:12;12.61;98.54
66337;SHT30;53139;45.576;5.304;2022-11-15T18:20:12;12.61;98.24
66337;SHT30;53139;45.576;5.304;2022-11-15T18:23:12;12.61;98.25
66337;SHT30;53139;45.576;5.304;2022-11-15T18:26:15;12.61;98.11
66337;SHT30;53139;45.576;5.304;2022-11-15T18:29:15;12.69;98.19
66337;SHT30;53139;45.576;5.304;2022-11-15T18:32:16;12.68;98.66
66337;SHT30;53139;45.576;5.304;2022-11-15T18:35:16;12.64;98.77
66337;SHT30;53139;45.576;5.304;2022-11-15T18:38:17;12.62;98.78
66337;SHT30;53139;45.576;5.304;2022-11-15T18:41:18;12.58;98.39
66337;SHT30;53139;45.576;5.304;2022-11-15T18:44:19;12.53;98.55
66337;SHT30;53139;45.576;5.304;2022-11-15T18:47:20;12.55;98.37
66337;SHT30;53139;45.576;5.304;2022-11-15T18:50:20;12.62;98.07
66337;SHT30;53139;45.576;5.304;2022-11-15T18:53:20;12.60;98.29
66337;SHT30;53139;45.576;5.304;2022-11-15T18:56:23;12.60;97.72
66337;SHT30;53139;45.576;5.304;2022-11-15T18:59:23;12.61;98.02
66337;SHT30;53139;45.576;5.304;2022-11-15T19:02:26;12.55;97.77
66337;SHT30;53139;45.576;5.304;2022-11-15T19:05:27;12.54;98.07
66337;SHT30;53139;45.576;5.304;2022-11-15T19:08:27;12.53;98.68
66337;SHT30;53139;45.576;5.304;2022-11-15T19:11:32;12.48;98.02
66337;SHT30;53139;45.576;5.304;2022-11-15T19:14:34;12.51;98.10
66337;SHT30;53139;45.576;5.304;2022-11-15T19:17:35;12.48;98.31
66337;SHT30;53139;45.576;5.304;2022-11-15T19:20:35;12.50;98.72
66337;SHT30;53139;45.576;5.304;2022-11-15T19:23:38;12.47;99.09
66337;SHT30;53139;45.576;5.304;2022-11-15T19:26:38;12.47;99.17
66337;SHT30;53139;45.576;5.304;2022-11-15T19:29:39;12.43;99.32
66337;SHT30;53139;45.576;5.304;2022-11-15T19:32:40;12.43;99.14
66337;SHT30;53139;45.576;5.304;2022-11-15T19:35:41;12.48;99.13
66337;SHT30;53139;45.576;5.304;2022-11-15T19:38:41;12.47;99.02
66337;SHT30;53139;45.576;5.304;2022-11-15T19:41:43;12.48;99.38
66337;SHT30;53139;45.576;5.304;2022-11-15T19:44:43;12.43;99.06
66337;SHT30;53139;45.576;5.304;2022-11-15T19:47:43;12.45;99.24
66337;SHT30;53139;45.576;5.304;2022-11-15T19:50:44;12.48;99.41
66337;SHT30;53139;45.576;5.304;2022-11-15T19:53:44;12.45;99.60
66337;SHT30;53139;45.576;5.304;2022-11-15T19:56:45;12.47;99.48
66337;SHT30;53139;45.576;5.304;2022-11-15T19:59:45;12.48;99.61
66337;SHT30;53139;45.576;5.304;2022-11-15T20:02:46;12.45;99.81
66337;SHT30;53139;45.576;5.304;2022-11-15T20:05:46;12.57;99.41
66337;SHT30;53139;45.576;5.304;2022-11-15T20:08:47;12.43;99.70
66337;SHT30;53139;45.576;5.304;2022-11-15T20:11:47;12.45;99.59
66337;SHT30;53139;45.576;5.304;2022-11-15T20:14:48;12.54;99.46
66337;SHT30;53139;45.576;5.304;2022-11-15T20:17:48;12.51;99.64
66337;SHT30;53139;45.576;5.304;2022-11-15T20:20:49;12.57;99.35
66337;SHT30;53139;45.576;5.304;2022-11-15T20:23:50;12.55;99.62
66337;SHT30;53139;45.576;5.304;2022-11-15T20:26:50;12.54;99.71
66337;SHT30;53139;45.576;5.304;2022-11-15T20:29:51;12.64;99.31
66337;SHT30;53139;45.576;5.304;2022-11-15T20:32:53;12.72;99.09
66337;SHT30;53139;45.576;5.304;2022-11-15T20:35:53;12.78;99.27
66337;SHT30;53139;45.576;5.304;2022-11-15T20:38:58;12.84;99.12
66337;SHT30;53139;45.576;5.304;2022-11-15T20:41:58;12.85;99.16
66337;SHT30;53139;45.576;5.304;2022-11-15T20:44:58;12.84;99.32
66337;SHT30;53139;45.576;5.304;2022-11-15T20:47:59;12.78;99.28
66337;SHT30;53139;45.576;5.304;2022-11-15T20:51:08;12.78;99.45
66337;SHT30;53139;45.576;5.304;2022-11-15T20:54:10;12.98;98.19
66337;SHT30;53139;45.576;5.304;2022-11-15T20:57:10;13.20;96.76
66337;SHT30;53139;45.576;5.304;2022-11-15T21:00:11;12.88;99.17
66337;SHT30;53139;45.576;5.304;2022-11-15T21:03:12;12.87;98.89
66337;SHT30;53139;45.576;5.304;2022-11-15T21:06:13;13.12;97.65
66337;SHT30;53139;45.576;5.304;2022-11-15T21:09:13;13.16;97.36
66337;SHT30;53139;45.576;5.304;2022-11-15T21:12:32;13.03;98.37